Torphins, United Kingdom
Current Conditions -  °F | °C
As of 12:20 AM on Tuesday 25 Nov 2014 (Local Time) from EGPD Reporting Station
Clear Clear  
Wind Chill: 43°   Ceiling: Unl
Heat Index: 43°   Visibility: 6mi
Dew Point: 39°   Wind: 3mph
Humidity: 87%   Direction: NA
Pressure: 30.18"   Gusts: NA
Location:  57.11°N, 2.62°W
Report Text: EGPD 250020Z VRB03KT CAVOK 06/04 Q1022
Loading
Personal Weather Stations






























Interactive Weather Map New forecast layout! Learn more

10-Day Weather Forecast

Advertisements
Track Severe Weather on mobile